Tlemcen Zenata, Algeria
Current Conditions -  °F | °C
As of 5:30 AM on Wednesday 22 Oct 2014 (Local Time) from DAON Reporting Station
Clear Clear  
Wind Chill: 57°   Ceiling: Unl
Heat Index: 57°   Visibility: 6mi
Dew Point: 50°   Wind: 3mph
Humidity: 77%   Direction: 120°ESE
Pressure: 30.21"   Gusts: NA
Location:  35.01°N, 1.46°W
Report Text: DAON 220430Z 12003KT CAVOK 14/10 Q1023
Loading
Personal Weather Stations






























Interactive Weather Map
Tropical Storm Tracking
New forecast layout! Learn more

10-Day Weather Forecast

Advertisements
Track Severe Weather on mobile